sensor_id;sensor_type;location;lat;lon;timestamp;temperature;humidity
16511;DHT22;8368;48.772;8.754;2024-03-23T00:55:54;7.70;99.90
16511;DHT22;8368;48.772;8.754;2024-03-23T00:58:19;7.60;99.90
16511;DHT22;8368;48.772;8.754;2024-03-23T01:00:45;7.60;99.90
16511;DHT22;8368;48.772;8.754;2024-03-23T01:03:10;7.60;99.90
16511;DHT22;8368;48.772;8.754;2024-03-23T01:05:36;7.70;99.90
16511;DHT22;8368;48.772;8.754;2024-03-23T01:08:01;7.80;99.90
16511;DHT22;8368;48.772;8.754;2024-03-23T01:10:27;7.90;99.90
16511;DHT22;8368;48.772;8.754;2024-03-23T01:12:53;7.90;99.90
16511;DHT22;8368;48.772;8.754;2024-03-23T01:15:18;7.90;99.90
16511;DHT22;8368;48.772;8.754;2024-03-23T01:17:44;7.90;99.90
16511;DHT22;8368;48.772;8.754;2024-03-23T01:20:09;7.90;99.90
16511;DHT22;8368;48.772;8.754;2024-03-23T01:22:35;8.00;99.90
16511;DHT22;8368;48.772;8.754;2024-03-23T01:25:01;8.00;99.90
16511;DHT22;8368;48.772;8.754;2024-03-23T01:27:26;7.90;99.90
16511;DHT22;8368;48.772;8.754;2024-03-23T01:29:52;7.90;99.90
16511;DHT22;8368;48.772;8.754;2024-03-23T01:32:18;8.00;99.90
16511;DHT22;8368;48.772;8.754;2024-03-23T01:34:44;8.00;99.90
16511;DHT22;8368;48.772;8.754;2024-03-23T01:37:09;8.00;99.90
16511;DHT22;8368;48.772;8.754;2024-03-23T01:39:35;8.00;99.90
16511;DHT22;8368;48.772;8.754;2024-03-23T01:42:00;8.00;99.90
16511;DHT22;8368;48.772;8.754;2024-03-23T01:44:26;8.00;99.90
16511;DHT22;8368;48.772;8.754;2024-03-23T01:46:51;8.00;99.90
16511;DHT22;8368;48.772;8.754;2024-03-23T01:49:17;8.00;99.90
16511;DHT22;8368;48.772;8.754;2024-03-23T01:51:43;8.00;99.90
16511;DHT22;8368;48.772;8.754;2024-03-23T01:54:09;8.00;99.90
16511;DHT22;8368;48.772;8.754;2024-03-23T01:56:36;8.00;99.90
16511;DHT22;8368;48.772;8.754;2024-03-23T01:59:05;8.00;99.90
16511;DHT22;8368;48.772;8.754;2024-03-23T02:01:31;8.00;99.90
16511;DHT22;8368;48.772;8.754;2024-03-23T02:03:57;8.00;99.90
16511;DHT22;8368;48.772;8.754;2024-03-23T02:06:24;8.00;99.90
16511;DHT22;8368;48.772;8.754;2024-03-23T02:08:50;8.00;99.90
16511;DHT22;8368;48.772;8.754;2024-03-23T02:11:15;8.00;99.90
16511;DHT22;8368;48.772;8.754;2024-03-23T02:13:41;7.90;99.90
16511;DHT22;8368;48.772;8.754;2024-03-23T02:16:06;8.00;99.90
16511;DHT22;8368;48.772;8.754;2024-03-23T02:18:35;8.20;99.90
16511;DHT22;8368;48.772;8.754;2024-03-23T02:21:01;8.20;99.90
16511;DHT22;8368;48.772;8.754;2024-03-23T02:23:26;8.30;99.90
16511;DHT22;8368;48.772;8.754;2024-03-23T02:25:52;8.60;99.90
16511;DHT22;8368;48.772;8.754;2024-03-23T02:28:21;8.80;99.90
16511;DHT22;8368;48.772;8.754;2024-03-23T02:30:50;9.30;99.90
16511;DHT22;8368;48.772;8.754;2024-03-23T02:33:16;9.50;99.90
16511;DHT22;8368;48.772;8.754;2024-03-23T02:35:43;9.80;99.90
16511;DHT22;8368;48.772;8.754;2024-03-23T02:38:09;10.00;99.90
16511;DHT22;8368;48.772;8.754;2024-03-23T02:40:34;10.10;99.90
16511;DHT22;8368;48.772;8.754;2024-03-23T02:43:00;10.20;99.90
16511;DHT22;8368;48.772;8.754;2024-03-23T02:45:26;10.30;99.90
16511;DHT22;8368;48.772;8.754;2024-03-23T02:47:51;10.30;99.90
16511;DHT22;8368;48.772;8.754;2024-03-23T02:50:20;10.30;99.90
16511;DHT22;8368;48.772;8.754;2024-03-23T02:52:46;10.30;99.90
16511;DHT22;8368;48.772;8.754;2024-03-23T02:55:12;10.30;99.90
16511;DHT22;8368;48.772;8.754;2024-03-23T02:57:38;10.20;99.90
16511;DHT22;8368;48.772;8.754;2024-03-23T03:00:04;10.20;99.90
16511;DHT22;8368;48.772;8.754;2024-03-23T03:02:31;10.10;99.90
16511;DHT22;8368;48.772;8.754;2024-03-23T03:04:57;10.10;99.90
16511;DHT22;8368;48.772;8.754;2024-03-23T03:07:22;10.10;99.90
16511;DHT22;8368;48.772;8.754;2024-03-23T03:09:48;10.10;99.90
16511;DHT22;8368;48.772;8.754;2024-03-23T03:12:13;10.10;99.90
16511;DHT22;8368;48.772;8.754;2024-03-23T03:14:39;10.20;99.90
16511;DHT22;8368;48.772;8.754;2024-03-23T03:17:04;10.40;99.90
16511;DHT22;8368;48.772;8.754;2024-03-23T03:19:30;10.50;99.90
16511;DHT22;8368;48.772;8.754;2024-03-23T03:21:55;10.70;99.90
16511;DHT22;8368;48.772;8.754;2024-03-23T03:24:21;10.80;99.90
16511;DHT22;8368;48.772;8.754;2024-03-23T03:26:47;10.80;99.90
16511;DHT22;8368;48.772;8.754;2024-03-23T03:29:12;10.80;99.90
16511;DHT22;8368;48.772;8.754;2024-03-23T03:31:39;10.70;99.90
16511;DHT22;8368;48.772;8.754;2024-03-23T03:34:04;10.70;99.90
16511;DHT22;8368;48.772;8.754;2024-03-23T03:36:30;10.70;99.90
16511;DHT22;8368;48.772;8.754;2024-03-23T03:38:56;10.70;99.90
16511;DHT22;8368;48.772;8.754;2024-03-23T03:41:21;10.60;99.90
16511;DHT22;8368;48.772;8.754;2024-03-23T03:43:47;10.60;99.90
16511;DHT22;8368;48.772;8.754;2024-03-23T03:46:12;10.50;99.90
16511;DHT22;8368;48.772;8.754;2024-03-23T03:48:38;10.60;99.90
16511;DHT22;8368;48.772;8.754;2024-03-23T03:51:04;10.50;99.90
16511;DHT22;8368;48.772;8.754;2024-03-23T03:53:29;10.50;99.90
16511;DHT22;8368;48.772;8.754;2024-03-23T03:55:56;10.50;99.90
16511;DHT22;8368;48.772;8.754;2024-03-23T03:58:21;10.50;99.90
16511;DHT22;8368;48.772;8.754;2024-03-23T04:00:47;10.50;99.90
16511;DHT22;8368;48.772;8.754;2024-03-23T04:03:12;10.50;99.90
16511;DHT22;8368;48.772;8.754;2024-03-23T04:05:38;10.60;99.90
16511;DHT22;8368;48.772;8.754;2024-03-23T04:08:04;10.70;99.90
16511;DHT22;8368;48.772;8.754;2024-03-23T04:10:30;10.70;99.90
16511;DHT22;8368;48.772;8.754;2024-03-23T04:12:55;9.90;99.90
16511;DHT22;8368;48.772;8.754;2024-03-23T04:15:21;9.40;99.90
16511;DHT22;8368;48.772;8.754;2024-03-23T04:17:47;9.10;99.90
16511;DHT22;8368;48.772;8.754;2024-03-23T04:20:13;8.90;99.90
16511;DHT22;8368;48.772;8.754;2024-03-23T04:22:42;8.90;99.90
16511;DHT22;8368;48.772;8.754;2024-03-23T04:25:08;9.00;99.90
16511;DHT22;8368;48.772;8.754;2024-03-23T04:27:36;9.10;99.90
16511;DHT22;8368;48.772;8.754;2024-03-23T04:30:02;9.10;99.90
16511;DHT22;8368;48.772;8.754;2024-03-23T04:32:29;9.10;99.90
16511;DHT22;8368;48.772;8.754;2024-03-23T04:34:54;9.00;99.90
16511;DHT22;8368;48.772;8.754;2024-03-23T04:37:20;9.00;99.90
16511;DHT22;8368;48.772;8.754;2024-03-23T04:39:46;8.90;99.90
16511;DHT22;8368;48.772;8.754;2024-03-23T04:42:15;8.80;99.90
16511;DHT22;8368;48.772;8.754;2024-03-23T04:44:40;8.60;99.90
16511;DHT22;8368;48.772;8.754;2024-03-23T04:47:07;8.50;99.90
16511;DHT22;8368;48.772;8.754;2024-03-23T04:49:32;8.40;99.90
16511;DHT22;8368;48.772;8.754;2024-03-23T04:51:58;8.40;99.90
16511;DHT22;8368;48.772;8.754;2024-03-23T04:54:23;8.40;99.90
16511;DHT22;8368;48.772;8.754;2024-03-23T04:56:49;8.40;99.90
16511;DHT22;8368;48.772;8.754;2024-03-23T04:59:15;8.40;99.90
16511;DHT22;8368;48.772;8.754;2024-03-23T05:01:40;8.40;99.90
16511;DHT22;8368;48.772;8.754;2024-03-23T05:04:07;8.40;99.90
16511;DHT22;8368;48.772;8.754;2024-03-23T05:06:33;8.30;99.90
16511;DHT22;8368;48.772;8.754;2024-03-23T05:08:59;8.30;99.90
16511;DHT22;8368;48.772;8.754;2024-03-23T05:11:25;8.30;99.90
16511;DHT22;8368;48.772;8.754;2024-03-23T05:13:51;8.20;99.90
16511;DHT22;8368;48.772;8.754;2024-03-23T05:16:16;8.20;99.90
16511;DHT22;8368;48.772;8.754;2024-03-23T05:18:42;8.10;99.90
16511;DHT22;8368;48.772;8.754;2024-03-23T05:21:07;8.10;99.90
16511;DHT22;8368;48.772;8.754;2024-03-23T05:23:33;8.00;99.90
16511;DHT22;8368;48.772;8.754;2024-03-23T05:25:58;7.90;99.90
16511;DHT22;8368;48.772;8.754;2024-03-23T05:28:24;7.90;99.90
16511;DHT22;8368;48.772;8.754;2024-03-23T05:30:53;7.80;99.90
16511;DHT22;8368;48.772;8.754;2024-03-23T05:33:20;7.70;99.90
16511;DHT22;8368;48.772;8.754;2024-03-23T05:35:46;7.70;99.90
16511;DHT22;8368;48.772;8.754;2024-03-23T05:38:13;7.60;99.90
16511;DHT22;8368;48.772;8.754;2024-03-23T05:40:39;7.50;99.90
16511;DHT22;8368;48.772;8.754;2024-03-23T05:43:06;7.40;99.90
16511;DHT22;8368;48.772;8.754;2024-03-23T05:45:32;7.30;99.90
16511;DHT22;8368;48.772;8.754;2024-03-23T05:47:57;7.30;99.90
16511;DHT22;8368;48.772;8.754;2024-03-23T05:50:23;7.20;99.90
16511;DHT22;8368;48.772;8.754;2024-03-23T05:52:49;7.10;99.90
16511;DHT22;8368;48.772;8.754;2024-03-23T05:55:15;7.00;99.90
16511;DHT22;8368;48.772;8.754;2024-03-23T05:57:41;6.90;99.90
16511;DHT22;8368;48.772;8.754;2024-03-23T06:00:07;6.90;99.90
16511;DHT22;8368;48.772;8.754;2024-03-23T06:02:44;6.80;99.90
16511;DHT22;8368;48.772;8.754;2024-03-23T06:05:12;6.80;99.90
16511;DHT22;8368;48.772;8.754;2024-03-23T06:07:38;6.70;99.90
16511;DHT22;8368;48.772;8.754;2024-03-23T06:10:05;6.70;99.90
16511;DHT22;8368;48.772;8.754;2024-03-23T06:12:31;6.60;99.90
16511;DHT22;8368;48.772;8.754;2024-03-23T06:14:56;6.60;99.90
16511;DHT22;8368;48.772;8.754;2024-03-23T06:17:22;6.50;99.90
16511;DHT22;8368;48.772;8.754;2024-03-23T06:19:48;6.50;99.90
16511;DHT22;8368;48.772;8.754;2024-03-23T06:22:14;6.50;99.90
16511;DHT22;8368;48.772;8.754;2024-03-23T06:24:40;6.40;99.90
16511;DHT22;8368;48.772;8.754;2024-03-23T06:27:05;6.40;99.90
16511;DHT22;8368;48.772;8.754;2024-03-23T06:29:31;6.40;99.90
16511;DHT22;8368;48.772;8.754;2024-03-23T06:31:56;6.40;99.90
16511;DHT22;8368;48.772;8.754;2024-03-23T06:34:22;6.30;99.90
16511;DHT22;8368;48.772;8.754;2024-03-23T06:36:48;6.30;99.90
16511;DHT22;8368;48.772;8.754;2024-03-23T06:39:14;6.30;99.90
16511;DHT22;8368;48.772;8.754;2024-03-23T06:41:52;6.30;99.90
16511;DHT22;8368;48.772;8.754;2024-03-23T06:44:18;6.40;99.90
16511;DHT22;8368;48.772;8.754;2024-03-23T06:46:44;6.40;99.90
16511;DHT22;8368;48.772;8.754;2024-03-23T06:49:10;6.40;99.90
16511;DHT22;8368;48.772;8.754;2024-03-23T06:51:35;6.50;99.90
16511;DHT22;8368;48.772;8.754;2024-03-23T06:54:03;6.50;99.90
16511;DHT22;8368;48.772;8.754;2024-03-23T06:56:29;6.50;99.90
16511;DHT22;8368;48.772;8.754;2024-03-23T06:58:55;6.50;99.90
16511;DHT22;8368;48.772;8.754;2024-03-23T07:01:21;6.40;99.90
16511;DHT22;8368;48.772;8.754;2024-03-23T07:03:46;6.40;99.90
16511;DHT22;8368;48.772;8.754;2024-03-23T07:06:12;6.40;99.90
16511;DHT22;8368;48.772;8.754;2024-03-23T07:08:37;6.30;99.90
16511;DHT22;8368;48.772;8.754;2024-03-23T07:11:03;6.20;99.90
16511;DHT22;8368;48.772;8.754;2024-03-23T07:13:30;6.20;99.90
16511;DHT22;8368;48.772;8.754;2024-03-23T07:15:56;6.20;99.90
16511;DHT22;8368;48.772;8.754;2024-03-23T07:18:22;6.20;99.90
16511;DHT22;8368;48.772;8.754;2024-03-23T07:20:57;6.20;99.90
16511;DHT22;8368;48.772;8.754;2024-03-23T07:23:24;6.20;99.90
16511;DHT22;8368;48.772;8.754;2024-03-23T07:25:59;6.20;99.90
16511;DHT22;8368;48.772;8.754;2024-03-23T07:28:24;6.20;99.90
16511;DHT22;8368;48.772;8.754;2024-03-23T07:31:09;6.10;99.90
16511;DHT22;8368;48.772;8.754;2024-03-23T07:33:45;6.20;99.90
16511;DHT22;8368;48.772;8.754;2024-03-23T07:36:11;6.20;99.90
16511;DHT22;8368;48.772;8.754;2024-03-23T07:38:37;6.20;99.90
16511;DHT22;8368;48.772;8.754;2024-03-23T07:41:07;6.20;99.90
16511;DHT22;8368;48.772;8.754;2024-03-23T07:43:33;6.20;99.90
16511;DHT22;8368;48.772;8.754;2024-03-23T07:45:59;6.20;99.90
16511;DHT22;8368;48.772;8.754;2024-03-23T07:48:25;6.20;99.90
16511;DHT22;8368;48.772;8.754;2024-03-23T07:53:25;6.10;99.90
16511;DHT22;8368;48.772;8.754;2024-03-23T07:56:06;6.10;99.90
16511;DHT22;8368;48.772;8.754;2024-03-23T07:58:35;6.20;99.90
16511;DHT22;8368;48.772;8.754;2024-03-23T08:01:08;6.20;99.90
16511;DHT22;8368;48.772;8.754;2024-03-23T08:03:35;6.20;99.90
16511;DHT22;8368;48.772;8.754;2024-03-23T08:06:30;6.20;99.90
16511;DHT22;8368;48.772;8.754;2024-03-23T08:08:56;6.20;99.90
16511;DHT22;8368;48.772;8.754;2024-03-23T08:11:28;6.30;99.90
16511;DHT22;8368;48.772;8.754;2024-03-23T08:13:55;6.20;99.90
16511;DHT22;8368;48.772;8.754;2024-03-23T08:16:21;6.20;99.90
16511;DHT22;8368;48.772;8.754;2024-03-23T08:18:46;6.20;99.90
16511;DHT22;8368;48.772;8.754;2024-03-23T08:21:12;6.10;99.90
16511;DHT22;8368;48.772;8.754;2024-03-23T08:23:38;6.00;99.90
16511;DHT22;8368;48.772;8.754;2024-03-23T08:26:06;6.00;99.90
16511;DHT22;8368;48.772;8.754;2024-03-23T08:28:32;6.10;99.90
16511;DHT22;8368;48.772;8.754;2024-03-23T08:31:03;6.10;99.90
16511;DHT22;8368;48.772;8.754;2024-03-23T08:33:29;6.00;99.90
16511;DHT22;8368;48.772;8.754;2024-03-23T08:36:03;6.10;99.90
16511;DHT22;8368;48.772;8.754;2024-03-23T08:38:29;6.20;99.90
16511;DHT22;8368;48.772;8.754;2024-03-23T08:40:58;6.20;99.90
16511;DHT22;8368;48.772;8.754;2024-03-23T08:43:25;6.30;99.90
16511;DHT22;8368;48.772;8.754;2024-03-23T08:45:50;6.20;99.90
16511;DHT22;8368;48.772;8.754;2024-03-23T08:48:17;6.10;99.90
16511;DHT22;8368;48.772;8.754;2024-03-23T08:50:43;6.00;99.90
16511;DHT22;8368;48.772;8.754;2024-03-23T08:53:09;6.00;99.90
16511;DHT22;8368;48.772;8.754;2024-03-23T08:55:34;5.90;99.90
16511;DHT22;8368;48.772;8.754;2024-03-23T08:58:01;5.90;99.90
16511;DHT22;8368;48.772;8.754;2024-03-23T09:00:26;6.00;99.90
16511;DHT22;8368;48.772;8.754;2024-03-23T09:02:52;5.90;99.90
16511;DHT22;8368;48.772;8.754;2024-03-23T09:05:18;5.80;99.90
16511;DHT22;8368;48.772;8.754;2024-03-23T09:07:43;5.80;99.90
16511;DHT22;8368;48.772;8.754;2024-03-23T09:10:09;5.90;99.90
16511;DHT22;8368;48.772;8.754;2024-03-23T09:12:34;5.90;99.90
16511;DHT22;8368;48.772;8.754;2024-03-23T09:15:00;6.00;99.90
16511;DHT22;8368;48.772;8.754;2024-03-23T09:17:25;6.20;99.90
16511;DHT22;8368;48.772;8.754;2024-03-23T09:19:51;6.30;99.90
16511;DHT22;8368;48.772;8.754;2024-03-23T09:22:16;6.30;99.90
16511;DHT22;8368;48.772;8.754;2024-03-23T09:24:42;6.30;99.90
16511;DHT22;8368;48.772;8.754;2024-03-23T09:27:08;6.30;99.90
16511;DHT22;8368;48.772;8.754;2024-03-23T09:29:33;6.30;99.90
16511;DHT22;8368;48.772;8.754;2024-03-23T09:31:59;6.30;99.90
16511;DHT22;8368;48.772;8.754;2024-03-23T09:34:24;6.50;99.90
16511;DHT22;8368;48.772;8.754;2024-03-23T09:36:53;6.60;99.90
16511;DHT22;8368;48.772;8.754;2024-03-23T09:39:19;6.70;99.90
16511;DHT22;8368;48.772;8.754;2024-03-23T09:41:45;6.70;99.90
16511;DHT22;8368;48.772;8.754;2024-03-23T09:44:10;6.80;99.90
16511;DHT22;8368;48.772;8.754;2024-03-23T09:46:36;6.90;99.90
16511;DHT22;8368;48.772;8.754;2024-03-23T09:49:03;7.10;99.90
16511;DHT22;8368;48.772;8.754;2024-03-23T09:51:31;7.20;99.90
16511;DHT22;8368;48.772;8.754;2024-03-23T09:53:57;7.20;99.90
16511;DHT22;8368;48.772;8.754;2024-03-23T09:56:22;7.00;99.90
16511;DHT22;8368;48.772;8.754;2024-03-23T09:58:49;7.00;99.90
16511;DHT22;8368;48.772;8.754;2024-03-23T10:01:15;7.10;99.90
16511;DHT22;8368;48.772;8.754;2024-03-23T10:03:46;7.00;99.90
16511;DHT22;8368;48.772;8.754;2024-03-23T10:06:11;7.00;99.90
16511;DHT22;8368;48.772;8.754;2024-03-23T10:08:40;7.00;99.90
16511;DHT22;8368;48.772;8.754;2024-03-23T10:11:16;7.10;99.90
16511;DHT22;8368;48.772;8.754;2024-03-23T10:13:43;7.30;99.90
16511;DHT22;8368;48.772;8.754;2024-03-23T10:16:09;7.50;99.90
16511;DHT22;8368;48.772;8.754;2024-03-23T10:18:39;7.70;99.90
16511;DHT22;8368;48.772;8.754;2024-03-23T10:21:11;7.60;99.90
16511;DHT22;8368;48.772;8.754;2024-03-23T10:23:41;7.30;99.90
16511;DHT22;8368;48.772;8.754;2024-03-23T10:26:23;6.80;99.90
16511;DHT22;8368;48.772;8.754;2024-03-23T10:28:59;6.10;99.90
16511;DHT22;8368;48.772;8.754;2024-03-23T10:31:27;5.60;99.90
16511;DHT22;8368;48.772;8.754;2024-03-23T10:33:53;5.10;99.90
16511;DHT22;8368;48.772;8.754;2024-03-23T10:36:20;4.90;99.90
16511;DHT22;8368;48.772;8.754;2024-03-23T10:38:46;4.40;99.90
16511;DHT22;8368;48.772;8.754;2024-03-23T10:41:12;4.10;99.90
16511;DHT22;8368;48.772;8.754;2024-03-23T10:43:39;4.20;99.90
16511;DHT22;8368;48.772;8.754;2024-03-23T10:46:05;4.20;99.90
16511;DHT22;8368;48.772;8.754;2024-03-23T10:48:33;4.40;99.90
16511;DHT22;8368;48.772;8.754;2024-03-23T10:50:59;4.60;99.90
16511;DHT22;8368;48.772;8.754;2024-03-23T10:53:27;4.60;99.90
16511;DHT22;8368;48.772;8.754;2024-03-23T10:55:57;4.70;99.90
16511;DHT22;8368;48.772;8.754;2024-03-23T10:58:44;4.70;99.90
16511;DHT22;8368;48.772;8.754;2024-03-23T11:01:12;4.80;99.90
16511;DHT22;8368;48.772;8.754;2024-03-23T11:03:39;4.90;99.90
16511;DHT22;8368;48.772;8.754;2024-03-23T11:06:07;5.00;99.90
16511;DHT22;8368;48.772;8.754;2024-03-23T11:08:36;5.00;99.90
16511;DHT22;8368;48.772;8.754;2024-03-23T11:13:38;5.20;99.90
16511;DHT22;8368;48.772;8.754;2024-03-23T11:16:35;5.30;99.90
16511;DHT22;8368;48.772;8.754;2024-03-23T11:19:36;5.40;99.90
16511;DHT22;8368;48.772;8.754;2024-03-23T11:22:02;5.60;99.90
16511;DHT22;8368;48.772;8.754;2024-03-23T11:24:29;5.70;99.90
16511;DHT22;8368;48.772;8.754;2024-03-23T11:26:54;5.80;99.90
16511;DHT22;8368;48.772;8.754;2024-03-23T11:29:20;5.90;99.90
16511;DHT22;8368;48.772;8.754;2024-03-23T11:34:12;6.10;99.90
16511;DHT22;8368;48.772;8.754;2024-03-23T11:36:38;6.20;99.90
16511;DHT22;8368;48.772;8.754;2024-03-23T11:39:17;6.20;99.90
16511;DHT22;8368;48.772;8.754;2024-03-23T11:41:53;6.50;99.90
16511;DHT22;8368;48.772;8.754;2024-03-23T11:44:23;6.70;99.90
16511;DHT22;8368;48.772;8.754;2024-03-23T11:46:49;6.60;99.90
16511;DHT22;8368;48.772;8.754;2024-03-23T11:49:28;6.60;99.90
16511;DHT22;8368;48.772;8.754;2024-03-23T11:51:57;6.70;99.90
16511;DHT22;8368;48.772;8.754;2024-03-23T11:54:26;6.70;99.90
16511;DHT22;8368;48.772;8.754;2024-03-23T11:57:07;6.70;99.90
16511;DHT22;8368;48.772;8.754;2024-03-23T11:59:40;6.90;99.90
16511;DHT22;8368;48.772;8.754;2024-03-23T12:02:13;7.00;99.90
16511;DHT22;8368;48.772;8.754;2024-03-23T12:04:41;7.10;99.90
16511;DHT22;8368;48.772;8.754;2024-03-23T12:07:18;7.10;99.90
16511;DHT22;8368;48.772;8.754;2024-03-23T12:10:05;7.00;99.90
16511;DHT22;8368;48.772;8.754;2024-03-23T12:12:34;6.90;99.90
16511;DHT22;8368;48.772;8.754;2024-03-23T12:15:07;6.80;99.90
16511;DHT22;8368;48.772;8.754;2024-03-23T12:17:34;6.90;99.90
16511;DHT22;8368;48.772;8.754;2024-03-23T12:20:00;6.90;99.90
16511;DHT22;8368;48.772;8.754;2024-03-23T12:22:26;6.90;99.90
16511;DHT22;8368;48.772;8.754;2024-03-23T12:24:52;6.90;99.90
16511;DHT22;8368;48.772;8.754;2024-03-23T12:27:18;6.90;99.90
16511;DHT22;8368;48.772;8.754;2024-03-23T12:29:44;6.80;99.90
16511;DHT22;8368;48.772;8.754;2024-03-23T12:32:13;6.80;99.90
16511;DHT22;8368;48.772;8.754;2024-03-23T12:34:39;7.00;99.90
16511;DHT22;8368;48.772;8.754;2024-03-23T12:37:05;7.20;99.90
16511;DHT22;8368;48.772;8.754;2024-03-23T12:39:34;7.30;99.90
16511;DHT22;8368;48.772;8.754;2024-03-23T12:42:01;7.50;99.90
16511;DHT22;8368;48.772;8.754;2024-03-23T12:44:28;7.70;99.90
16511;DHT22;8368;48.772;8.754;2024-03-23T12:46:54;7.90;99.90
16511;DHT22;8368;48.772;8.754;2024-03-23T12:49:19;7.80;99.90
16511;DHT22;8368;48.772;8.754;2024-03-23T12:51:53;7.60;99.90
16511;DHT22;8368;48.772;8.754;2024-03-23T12:54:20;7.30;99.90
16511;DHT22;8368;48.772;8.754;2024-03-23T12:56:46;7.20;99.90
16511;DHT22;8368;48.772;8.754;2024-03-23T12:59:11;7.30;99.90
16511;DHT22;8368;48.772;8.754;2024-03-23T13:01:38;7.40;99.90
16511;DHT22;8368;48.772;8.754;2024-03-23T13:04:04;7.30;99.90
16511;DHT22;8368;48.772;8.754;2024-03-23T13:06:29;7.10;99.90
16511;DHT22;8368;48.772;8.754;2024-03-23T13:09:02;7.30;99.90
16511;DHT22;8368;48.772;8.754;2024-03-23T13:11:28;7.50;99.90
16511;DHT22;8368;48.772;8.754;2024-03-23T13:13:54;7.70;99.90
16511;DHT22;8368;48.772;8.754;2024-03-23T13:16:20;7.90;99.90
16511;DHT22;8368;48.772;8.754;2024-03-23T13:18:45;8.00;99.90
16511;DHT22;8368;48.772;8.754;2024-03-23T13:21:11;8.00;99.90
16511;DHT22;8368;48.772;8.754;2024-03-23T13:23:36;8.10;99.90
16511;DHT22;8368;48.772;8.754;2024-03-23T13:26:03;8.30;99.90
16511;DHT22;8368;48.772;8.754;2024-03-23T13:28:29;8.50;99.90
16511;DHT22;8368;48.772;8.754;2024-03-23T13:30:56;8.60;99.90
16511;DHT22;8368;48.772;8.754;2024-03-23T13:33:21;8.80;99.90
16511;DHT22;8368;48.772;8.754;2024-03-23T13:35:53;8.60;99.90
16511;DHT22;8368;48.772;8.754;2024-03-23T13:38:19;8.10;99.90
16511;DHT22;8368;48.772;8.754;2024-03-23T13:43:20;7.60;99.90
16511;DHT22;8368;48.772;8.754;2024-03-23T13:45:51;7.40;99.90
16511;DHT22;8368;48.772;8.754;2024-03-23T13:48:19;7.20;99.90
16511;DHT22;8368;48.772;8.754;2024-03-23T13:50:45;6.50;99.90
16511;DHT22;8368;48.772;8.754;2024-03-23T13:53:12;5.90;99.90
16511;DHT22;8368;48.772;8.754;2024-03-23T13:55:46;5.20;99.90
16511;DHT22;8368;48.772;8.754;2024-03-23T13:58:12;4.70;99.90
16511;DHT22;8368;48.772;8.754;2024-03-23T14:00:38;4.60;99.90
16511;DHT22;8368;48.772;8.754;2024-03-23T14:03:03;4.50;99.90
16511;DHT22;8368;48.772;8.754;2024-03-23T14:05:29;4.50;99.90
16511;DHT22;8368;48.772;8.754;2024-03-23T14:07:54;4.30;99.90
16511;DHT22;8368;48.772;8.754;2024-03-23T14:10:20;4.40;99.90
16511;DHT22;8368;48.772;8.754;2024-03-23T14:12:45;4.80;99.90
16511;DHT22;8368;48.772;8.754;2024-03-23T14:15:11;5.10;99.90
16511;DHT22;8368;48.772;8.754;2024-03-23T14:17:36;5.10;99.90
16511;DHT22;8368;48.772;8.754;2024-03-23T14:20:02;5.30;99.90
16511;DHT22;8368;48.772;8.754;2024-03-23T14:22:31;5.30;99.90
16511;DHT22;8368;48.772;8.754;2024-03-23T14:24:56;5.40;99.90
16511;DHT22;8368;48.772;8.754;2024-03-23T14:27:22;5.50;99.90
16511;DHT22;8368;48.772;8.754;2024-03-23T14:29:48;5.50;99.90
16511;DHT22;8368;48.772;8.754;2024-03-23T14:32:14;5.30;99.90
16511;DHT22;8368;48.772;8.754;2024-03-23T14:34:40;5.30;99.90
16511;DHT22;8368;48.772;8.754;2024-03-23T14:37:06;5.20;99.90
16511;DHT22;8368;48.772;8.754;2024-03-23T14:39:32;5.20;99.90
16511;DHT22;8368;48.772;8.754;2024-03-23T14:42:02;5.00;99.90
16511;DHT22;8368;48.772;8.754;2024-03-23T14:44:28;4.90;99.90
16511;DHT22;8368;48.772;8.754;2024-03-23T14:46:54;4.90;99.90
16511;DHT22;8368;48.772;8.754;2024-03-23T14:49:20;5.10;99.90
16511;DHT22;8368;48.772;8.754;2024-03-23T14:51:46;5.30;99.90
16511;DHT22;8368;48.772;8.754;2024-03-23T14:54:12;5.40;99.90
16511;DHT22;8368;48.772;8.754;2024-03-23T14:56:38;5.40;99.90
16511;DHT22;8368;48.772;8.754;2024-03-23T14:59:04;5.30;99.90
16511;DHT22;8368;48.772;8.754;2024-03-23T15:01:30;5.30;99.90
16511;DHT22;8368;48.772;8.754;2024-03-23T15:03:55;5.30;99.90
16511;DHT22;8368;48.772;8.754;2024-03-23T15:06:21;5.30;99.90
16511;DHT22;8368;48.772;8.754;2024-03-23T15:08:46;5.30;99.90
16511;DHT22;8368;48.772;8.754;2024-03-23T15:11:12;5.40;99.90
16511;DHT22;8368;48.772;8.754;2024-03-23T15:13:38;5.50;99.90
16511;DHT22;8368;48.772;8.754;2024-03-23T15:16:04;5.50;99.90
16511;DHT22;8368;48.772;8.754;2024-03-23T15:18:31;5.50;99.90
16511;DHT22;8368;48.772;8.754;2024-03-23T15:20:58;5.50;99.90
16511;DHT22;8368;48.772;8.754;2024-03-23T15:23:27;5.50;99.90
16511;DHT22;8368;48.772;8.754;2024-03-23T15:25:56;5.50;99.90
16511;DHT22;8368;48.772;8.754;2024-03-23T15:28:25;5.50;99.90
16511;DHT22;8368;48.772;8.754;2024-03-23T15:31:09;5.60;99.90
16511;DHT22;8368;48.772;8.754;2024-03-23T15:33:36;5.70;99.90
16511;DHT22;8368;48.772;8.754;2024-03-23T15:36:04;5.70;99.90
16511;DHT22;8368;48.772;8.754;2024-03-23T15:38:33;5.80;99.90
16511;DHT22;8368;48.772;8.754;2024-03-23T15:40:59;5.80;99.90
16511;DHT22;8368;48.772;8.754;2024-03-23T15:43:25;5.90;99.90
16511;DHT22;8368;48.772;8.754;2024-03-23T15:46:03;5.90;99.90
16511;DHT22;8368;48.772;8.754;2024-03-23T15:48:30;5.90;99.90
16511;DHT22;8368;48.772;8.754;2024-03-23T15:51:00;5.90;99.90
16511;DHT22;8368;48.772;8.754;2024-03-23T15:53:26;5.80;99.90
16511;DHT22;8368;48.772;8.754;2024-03-23T15:55:56;5.90;99.90
16511;DHT22;8368;48.772;8.754;2024-03-23T15:58:25;5.90;99.90
16511;DHT22;8368;48.772;8.754;2024-03-23T16:01:03;5.80;99.90
16511;DHT22;8368;48.772;8.754;2024-03-23T16:03:29;5.70;99.90
16511;DHT22;8368;48.772;8.754;2024-03-23T16:05:56;5.70;99.90
16511;DHT22;8368;48.772;8.754;2024-03-23T16:08:22;5.60;99.90
16511;DHT22;8368;48.772;8.754;2024-03-23T16:10:49;5.50;99.90
16511;DHT22;8368;48.772;8.754;2024-03-23T16:13:15;5.50;99.90
16511;DHT22;8368;48.772;8.754;2024-03-23T16:15:40;5.50;99.90
16511;DHT22;8368;48.772;8.754;2024-03-23T16:18:06;5.50;99.90
16511;DHT22;8368;48.772;8.754;2024-03-23T16:20:32;5.40;99.90
16511;DHT22;8368;48.772;8.754;2024-03-23T16:22:59;5.30;99.90
16511;DHT22;8368;48.772;8.754;2024-03-23T16:25:25;5.10;99.90
16511;DHT22;8368;48.772;8.754;2024-03-23T16:27:50;5.00;99.90
16511;DHT22;8368;48.772;8.754;2024-03-23T16:30:16;4.80;99.90
16511;DHT22;8368;48.772;8.754;2024-03-23T16:32:42;4.80;99.90
16511;DHT22;8368;48.772;8.754;2024-03-23T16:35:07;4.70;99.90
16511;DHT22;8368;48.772;8.754;2024-03-23T16:37:35;4.70;99.90
16511;DHT22;8368;48.772;8.754;2024-03-23T16:40:01;4.60;99.90
16511;DHT22;8368;48.772;8.754;2024-03-23T16:42:27;4.60;99.90
16511;DHT22;8368;48.772;8.754;2024-03-23T16:44:52;4.40;99.90
16511;DHT22;8368;48.772;8.754;2024-03-23T16:47:18;4.30;99.90
16511;DHT22;8368;48.772;8.754;2024-03-23T16:49:44;4.20;99.90
16511;DHT22;8368;48.772;8.754;2024-03-23T16:52:09;4.20;99.90
16511;DHT22;8368;48.772;8.754;2024-03-23T16:54:35;4.20;99.90
16511;DHT22;8368;48.772;8.754;2024-03-23T16:57:01;4.20;99.90
16511;DHT22;8368;48.772;8.754;2024-03-23T16:59:27;4.20;99.90
16511;DHT22;8368;48.772;8.754;2024-03-23T17:01:53;4.20;99.90
16511;DHT22;8368;48.772;8.754;2024-03-23T17:04:21;4.20;99.90